createdAt,value
2023-11-16T00:00:34.267Z,10.36
2023-11-16T00:03:24.554Z,10.26
2023-11-16T00:05:52.840Z,10.19
2023-11-16T00:08:21.317Z,10.33
2023-11-16T00:10:49.457Z,10.29
2023-11-16T00:13:17.885Z,10.29
2023-11-16T00:15:46.028Z,10.34
2023-11-16T00:18:15.214Z,10.29
2023-11-16T00:20:44.895Z,10.22
2023-11-16T00:23:13.510Z,10.32
2023-11-16T00:25:42.536Z,10.27
2023-11-16T00:28:11.108Z,10.24
2023-11-16T00:30:39.487Z,10.23
2023-11-16T00:33:08.057Z,10.12
2023-11-16T00:35:37.335Z,10.04
2023-11-16T00:38:07.192Z,9.98
2023-11-16T00:40:35.302Z,9.82
2023-11-16T00:43:04.133Z,9.79
2023-11-16T00:45:32.585Z,9.88
2023-11-16T00:48:01.262Z,9.89
2023-11-16T00:50:32.267Z,9.95
2023-11-16T00:53:00.782Z,10.02
2023-11-16T00:55:33.028Z,10.12
2023-11-16T00:58:04.191Z,10.03
2023-11-16T01:00:32.600Z,10.04
2023-11-16T01:03:01.222Z,9.99
2023-11-16T01:05:29.977Z,9.96
2023-11-16T01:07:59.004Z,9.74
2023-11-16T01:10:30.831Z,9.72
2023-11-16T01:13:00.952Z,9.81
2023-11-16T01:15:29.130Z,9.75
2023-11-16T01:17:57.930Z,9.59
2023-11-16T01:20:31.010Z,9.68
2023-11-16T01:23:10.473Z,9.51
2023-11-16T01:25:42.020Z,9.46
2023-11-16T01:28:12.146Z,9.41
2023-11-16T01:30:40.287Z,9.37
2023-11-16T01:33:09.737Z,9.22
2023-11-16T01:35:38.543Z,9.11
2023-11-16T01:38:07.079Z,9.03
2023-11-16T01:40:35.134Z,8.87
2023-11-16T01:43:03.742Z,8.89
2023-11-16T01:45:34.262Z,9.02
2023-11-16T01:48:04.040Z,9.14
2023-11-16T01:50:32.914Z,9.17
2023-11-16T01:53:06.977Z,9.21
2023-11-16T01:55:35.927Z,9.12
2023-11-16T01:58:06.698Z,9.13
2023-11-16T02:00:36.614Z,9.08
2023-11-16T02:03:05.913Z,9.08
2023-11-16T02:05:35.147Z,9.20
2023-11-16T02:08:05.282Z,9.07
2023-11-16T02:10:33.383Z,9.06
2023-11-16T02:13:02.250Z,8.92
2023-11-16T02:15:33.250Z,8.98
2023-11-16T02:18:04.067Z,8.98
2023-11-16T02:20:32.513Z,8.86
2023-11-16T02:23:03.605Z,8.62
2023-11-16T02:25:31.881Z,8.28
2023-11-16T02:28:00.348Z,8.21
2023-11-16T02:30:28.696Z,7.95
2023-11-16T02:32:57.147Z,7.95
2023-11-16T02:35:35.340Z,8.01
2023-11-16T02:38:05.133Z,8.17
2023-11-16T02:40:33.318Z,8.26
2023-11-16T02:43:03.935Z,8.23
2023-11-16T02:45:34.293Z,8.35
2023-11-16T02:48:02.813Z,8.25
2023-11-16T02:50:31.165Z,8.41
2023-11-16T02:53:01.022Z,8.40
2023-11-16T02:55:34.373Z,8.38
2023-11-16T02:58:02.766Z,8.25
2023-11-16T03:00:33.332Z,8.49
2023-11-16T03:03:04.145Z,8.54
2023-11-16T03:05:34.507Z,8.58
2023-11-16T03:08:03.537Z,8.51
2023-11-16T03:10:34.110Z,8.67
2023-11-16T03:13:05.328Z,8.64
2023-11-16T03:15:34.368Z,8.50
2023-11-16T03:18:03.765Z,8.65
2023-11-16T03:20:32.031Z,8.69
2023-11-16T03:23:00.757Z,8.75
2023-11-16T03:25:30.822Z,8.74
2023-11-16T03:28:00.850Z,8.73
2023-11-16T03:30:29.074Z,8.90
2023-11-16T03:32:57.836Z,8.83
2023-11-16T03:35:25.919Z,8.89
2023-11-16T03:37:54.949Z,8.92
2023-11-16T03:40:23.118Z,8.75
2023-11-16T03:42:51.555Z,8.89
2023-11-16T03:45:21.655Z,8.89
2023-11-16T03:47:51.041Z,8.82
2023-11-16T03:50:19.340Z,8.80
2023-11-16T03:52:47.487Z,8.81
2023-11-16T03:55:16.179Z,8.83
2023-11-16T03:57:44.394Z,8.72
2023-11-16T04:00:14.556Z,8.74
2023-11-16T04:02:44.278Z,8.64
2023-11-16T04:05:12.804Z,8.58
2023-11-16T04:07:43.894Z,8.64
2023-11-16T04:10:13.946Z,8.65
2023-11-16T04:12:42.940Z,8.77
2023-11-16T04:15:15.230Z,8.72
2023-11-16T04:17:46.413Z,8.79
2023-11-16T04:20:15.557Z,8.90
2023-11-16T04:22:44.554Z,8.99
2023-11-16T04:25:20.692Z,8.91
2023-11-16T04:27:50.770Z,8.86
2023-11-16T04:30:21.141Z,8.95
2023-11-16T04:32:52.240Z,8.91
2023-11-16T04:35:22.477Z,8.92
2023-11-16T04:37:50.755Z,9.06
2023-11-16T04:40:21.002Z,9.15
2023-11-16T04:42:49.661Z,9.05
2023-11-16T04:45:20.136Z,9.10
2023-11-16T04:47:48.637Z,8.93
2023-11-16T04:50:19.347Z,9.09
2023-11-16T04:52:47.931Z,8.94
2023-11-16T04:55:17.826Z,8.86
2023-11-16T04:57:47.105Z,8.87
2023-11-16T05:00:20.003Z,8.93
2023-11-16T05:02:49.041Z,8.98
2023-11-16T05:05:18.793Z,9.05
2023-11-16T05:07:47.379Z,9.07
2023-11-16T05:10:17.933Z,8.80
2023-11-16T05:12:50.007Z,8.80
2023-11-16T05:15:18.959Z,8.79
2023-11-16T05:17:47.699Z,8.82
2023-11-16T05:20:17.722Z,8.70
2023-11-16T05:22:50.801Z,8.80
2023-11-16T05:25:18.914Z,8.86
2023-11-16T05:27:47.482Z,8.82
2023-11-16T05:30:15.644Z,8.90
2023-11-16T05:32:44.266Z,8.90
2023-11-16T05:35:13.857Z,8.89
2023-11-16T05:37:42.425Z,8.83
2023-11-16T05:40:13.634Z,8.92
2023-11-16T05:42:42.047Z,8.93
2023-11-16T05:45:14.126Z,8.97
2023-11-16T05:47:42.825Z,8.75
2023-11-16T05:50:14.772Z,8.86
2023-11-16T05:52:43.123Z,8.86
2023-11-16T05:55:12.749Z,8.92
2023-11-16T05:57:43.717Z,8.77
2023-11-16T06:00:13.129Z,8.93
2023-11-16T06:02:46.808Z,8.95
2023-11-16T06:05:16.454Z,8.91
2023-11-16T06:07:45.184Z,8.87
2023-11-16T06:10:18.663Z,8.94
2023-11-16T06:12:48.278Z,9.04
2023-11-16T06:15:17.012Z,9.17
2023-11-16T06:17:45.533Z,9.02
2023-11-16T06:20:14.276Z,8.93
2023-11-16T06:22:43.221Z,8.94
2023-11-16T06:25:12.721Z,8.93
2023-11-16T06:27:43.009Z,8.87
2023-11-16T06:30:14.508Z,9.06
2023-11-16T06:32:43.924Z,9.18
2023-11-16T06:35:12.678Z,9.02
2023-11-16T06:37:41.483Z,9.01
2023-11-16T06:40:11.075Z,9.13
2023-11-16T06:42:42.875Z,9.29
2023-11-16T06:45:14.052Z,9.01
2023-11-16T06:47:43.031Z,9.10
2023-11-16T06:50:14.681Z,9.30
2023-11-16T06:52:45.128Z,9.52
2023-11-16T06:55:15.352Z,9.57
2023-11-16T06:57:45.194Z,9.75
2023-11-16T07:00:23.221Z,9.87
2023-11-16T07:03:01.552Z,10.02
2023-11-16T07:05:31.969Z,10.25
2023-11-16T07:08:00.996Z,10.34
2023-11-16T07:10:29.424Z,10.42
2023-11-16T07:13:03.370Z,10.85
2023-11-16T07:15:32.677Z,10.91
2023-11-16T07:18:02.708Z,10.86
2023-11-16T07:20:31.257Z,10.77
2023-11-16T07:22:59.640Z,10.87
2023-11-16T07:25:29.740Z,10.75
2023-11-16T07:28:00.192Z,10.71
2023-11-16T07:30:28.832Z,10.64
2023-11-16T07:32:59.288Z,10.63
2023-11-16T07:35:27.485Z,10.44
2023-11-16T07:37:56.188Z,10.37
2023-11-16T07:40:25.302Z,10.39
2023-11-16T07:42:53.769Z,10.69
2023-11-16T07:45:23.542Z,11.03
2023-11-16T07:47:52.558Z,11.24
2023-11-16T07:50:21.320Z,11.56
2023-11-16T07:52:54.695Z,11.64
2023-11-16T07:55:23.657Z,11.61
2023-11-16T07:57:54.193Z,11.78
2023-11-16T08:00:28.528Z,11.66
2023-11-16T08:03:14.610Z,11.66
2023-11-16T08:05:44.239Z,11.74
2023-11-16T08:08:15.312Z,11.83
2023-11-16T08:10:44.169Z,11.96
2023-11-16T08:13:13.011Z,12.00
2023-11-16T08:15:43.000Z,11.78
2023-11-16T08:18:13.652Z,11.95
2023-11-16T08:20:42.925Z,11.96
2023-11-16T08:23:11.609Z,12.15
2023-11-16T08:25:39.985Z,12.07
2023-11-16T08:28:10.374Z,11.78
2023-11-16T08:30:39.177Z,11.82
2023-11-16T08:33:09.845Z,11.76
2023-11-16T08:35:39.180Z,11.72
2023-11-16T08:38:09.628Z,11.58
2023-11-16T08:40:38.059Z,11.63
2023-11-16T08:43:12.345Z,11.60
2023-11-16T08:45:41.171Z,11.77
2023-11-16T08:48:12.651Z,11.93
2023-11-16T08:50:44.381Z,12.11
2023-11-16T08:53:14.548Z,11.97
2023-11-16T08:55:43.205Z,11.92
2023-11-16T08:58:12.763Z,11.99
2023-11-16T09:00:46.764Z,11.88
2023-11-16T09:03:20.481Z,11.67
2023-11-16T09:05:50.652Z,11.49
2023-11-16T09:08:20.729Z,11.45
2023-11-16T09:10:50.816Z,11.50
2023-11-16T09:13:19.731Z,11.58
2023-11-16T09:15:48.561Z,11.59
2023-11-16T09:18:20.939Z,11.52
2023-11-16T09:20:50.393Z,11.68
2023-11-16T09:23:18.995Z,11.87
2023-11-16T09:25:47.097Z,12.36
2023-11-16T09:28:16.477Z,12.84
2023-11-16T09:30:45.666Z,12.87
2023-11-16T09:33:14.474Z,13.16
2023-11-16T09:35:44.102Z,13.89
2023-11-16T09:38:13.186Z,14.67
2023-11-16T09:40:43.331Z,14.82
2023-11-16T09:43:22.404Z,15.04
2023-11-16T09:45:51.855Z,15.32
2023-11-16T09:48:22.324Z,15.81
2023-11-16T09:50:55.081Z,16.46
2023-11-16T09:53:28.539Z,17.48
2023-11-16T09:56:00.709Z,19.74
2023-11-16T09:58:29.953Z,20.79
2023-11-16T10:00:58.759Z,20.71
2023-11-16T10:03:30.984Z,19.91
2023-11-16T10:06:02.736Z,19.89
2023-11-16T10:08:34.699Z,20.95
2023-11-16T10:11:05.890Z,21.19
2023-11-16T10:13:35.046Z,21.90
2023-11-16T10:16:04.967Z,23.72
2023-11-16T10:18:33.710Z,23.48
2023-11-16T10:21:05.299Z,22.75
2023-11-16T10:23:34.129Z,22.56
2023-11-16T10:26:07.244Z,20.70
2023-11-16T10:28:36.374Z,19.25
2023-11-16T10:31:05.229Z,18.20
2023-11-16T10:33:33.854Z,17.29
2023-11-16T10:36:03.692Z,16.61
2023-11-16T10:38:34.183Z,16.15
2023-11-16T10:41:04.534Z,15.85
2023-11-16T10:43:33.465Z,15.43
2023-11-16T10:46:02.847Z,15.03
2023-11-16T10:48:40.073Z,14.81
2023-11-16T10:51:09.985Z,14.47
2023-11-16T10:53:39.756Z,14.50
2023-11-16T10:56:10.945Z,14.64
2023-11-16T10:58:41.586Z,14.59
2023-11-16T11:01:14.649Z,14.22
2023-11-16T11:03:46.714Z,14.04
2023-11-16T11:06:22.715Z,13.97
2023-11-16T11:08:55.521Z,14.07
2023-11-16T11:11:26.320Z,14.85
2023-11-16T11:13:56.562Z,15.59
2023-11-16T11:16:26.762Z,16.28
2023-11-16T11:18:55.357Z,16.48
2023-11-16T11:21:25.357Z,16.37
2023-11-16T11:24:01.705Z,16.04
2023-11-16T11:26:42.892Z,15.64
2023-11-16T11:29:11.835Z,15.41
2023-11-16T11:31:45.090Z,15.35
2023-11-16T11:34:13.564Z,15.31
2023-11-16T11:36:43.706Z,15.09
2023-11-16T11:39:16.290Z,14.96
2023-11-16T11:41:57.546Z,14.89
2023-11-16T11:44:27.801Z,14.52
2023-11-16T11:46:57.037Z,14.36
2023-11-16T11:49:25.633Z,14.18
2023-11-16T11:51:56.153Z,14.10
2023-11-16T11:54:34.757Z,13.95
2023-11-16T11:57:04.627Z,13.94
2023-11-16T11:59:33.190Z,13.56
2023-11-16T12:02:05.976Z,13.64
2023-11-16T12:04:34.670Z,13.38
2023-11-16T12:07:09.366Z,13.81
2023-11-16T12:09:38.288Z,13.78
2023-11-16T12:12:07.024Z,13.61
2023-11-16T12:14:42.512Z,13.89
2023-11-16T12:17:15.641Z,13.78
2023-11-16T12:19:45.066Z,14.09
2023-11-16T12:22:15.903Z,14.49
2023-11-16T12:24:45.410Z,14.44
2023-11-16T12:27:16.410Z,14.36
2023-11-16T12:29:54.390Z,14.42
2023-11-16T12:32:22.766Z,14.70
2023-11-16T12:34:52.632Z,14.63
2023-11-16T12:37:23.268Z,14.74
2023-11-16T12:39:52.909Z,14.59
2023-11-16T12:42:24.929Z,14.53
2023-11-16T12:44:54.375Z,14.42
2023-11-16T12:47:37.817Z,14.41
2023-11-16T12:50:07.678Z,14.12
2023-11-16T12:52:38.161Z,13.86
2023-11-16T12:55:11.406Z,13.74
2023-11-16T12:57:42.014Z,13.76
2023-11-16T13:00:11.939Z,13.77
2023-11-16T13:02:47.125Z,13.59
2023-11-16T13:05:18.917Z,13.43
2023-11-16T13:07:48.760Z,13.31
2023-11-16T13:10:18.609Z,13.06
2023-11-16T13:12:47.825Z,13.02
2023-11-16T13:15:16.580Z,13.10
2023-11-16T13:17:44.821Z,12.83
2023-11-16T13:20:13.844Z,12.64
2023-11-16T13:22:43.154Z,12.62
2023-11-16T13:25:13.493Z,12.72
2023-11-16T13:27:48.608Z,12.77
2023-11-16T13:30:17.953Z,12.79
2023-11-16T13:32:46.412Z,12.79
2023-11-16T13:35:15.586Z,12.66
2023-11-16T13:37:44.235Z,12.63
2023-11-16T13:40:14.823Z,12.65
2023-11-16T13:42:43.573Z,12.57
2023-11-16T13:45:14.221Z,12.54
2023-11-16T13:47:42.778Z,12.62
2023-11-16T13:50:12.538Z,12.80
2023-11-16T13:52:42.062Z,12.56
2023-11-16T13:55:11.779Z,12.50
2023-11-16T13:57:42.894Z,12.34
2023-11-16T14:00:12.886Z,12.40
2023-11-16T14:02:51.376Z,12.64
2023-11-16T14:05:22.806Z,12.61
2023-11-16T14:07:51.877Z,12.64
2023-11-16T14:10:26.921Z,12.46
2023-11-16T14:12:57.534Z,12.40
2023-11-16T14:15:27.411Z,11.98
2023-11-16T14:17:55.678Z,12.29
2023-11-16T14:20:25.313Z,12.22
2023-11-16T14:22:54.036Z,11.94
2023-11-16T14:25:30.555Z,12.11
2023-11-16T14:28:04.279Z,11.93
2023-11-16T14:30:33.431Z,11.89
2023-11-16T14:33:02.537Z,11.62
2023-11-16T14:35:31.145Z,11.67
2023-11-16T14:38:00.571Z,11.67
2023-11-16T14:40:30.736Z,11.56
2023-11-16T14:43:00.771Z,11.62
2023-11-16T14:45:31.096Z,11.75
2023-11-16T14:48:07.032Z,11.83
2023-11-16T14:50:35.814Z,11.83
2023-11-16T14:53:08.171Z,11.68
2023-11-16T14:55:37.768Z,11.73
2023-11-16T14:58:06.339Z,11.79
2023-11-16T15:00:35.802Z,11.80
2023-11-16T15:03:14.533Z,11.89
2023-11-16T15:05:42.735Z,11.76
2023-11-16T15:08:11.146Z,11.80
2023-11-16T15:10:40.897Z,11.65
2023-11-16T15:13:10.849Z,11.80
2023-11-16T15:15:40.478Z,11.27
2023-11-16T15:18:09.171Z,11.43
2023-11-16T15:20:39.275Z,11.48
2023-11-16T15:23:07.916Z,11.39
2023-11-16T15:25:36.224Z,11.28
2023-11-16T15:28:04.678Z,11.05
2023-11-16T15:30:32.854Z,11.11
2023-11-16T15:33:02.910Z,10.94
2023-11-16T15:35:31.268Z,11.25
2023-11-16T15:38:02.274Z,11.05
2023-11-16T15:40:30.776Z,10.94
2023-11-16T15:42:59.642Z,10.77
2023-11-16T15:45:28.877Z,10.80
2023-11-16T15:47:58.025Z,10.76
2023-11-16T15:50:29.669Z,10.69
2023-11-16T15:52:58.357Z,10.61
2023-11-16T15:55:28.483Z,10.35
2023-11-16T15:57:57.709Z,10.27
2023-11-16T16:00:26.011Z,10.36
2023-11-16T16:02:58.725Z,10.24
2023-11-16T16:05:28.455Z,10.33
2023-11-16T16:07:57.437Z,10.04
2023-11-16T16:10:25.844Z,9.74
2023-11-16T16:12:54.329Z,9.93
2023-11-16T16:15:22.758Z,9.82
2023-11-16T16:17:51.345Z,9.80
2023-11-16T16:20:21.233Z,9.69
2023-11-16T16:22:52.590Z,9.72
2023-11-16T16:25:21.026Z,9.83
2023-11-16T16:27:51.326Z,9.91
2023-11-16T16:30:20.531Z,9.99
2023-11-16T16:32:49.914Z,9.81
2023-11-16T16:35:18.653Z,9.88
2023-11-16T16:37:47.476Z,9.94
2023-11-16T16:40:17.977Z,9.66
2023-11-16T16:42:46.741Z,9.92
2023-11-16T16:45:15.676Z,9.86
2023-11-16T16:47:50.309Z,9.65
2023-11-16T16:50:24.132Z,9.71
2023-11-16T16:52:53.094Z,9.76
2023-11-16T16:55:22.643Z,9.86
2023-11-16T16:57:51.348Z,9.75
2023-11-16T17:00:22.595Z,9.87
2023-11-16T17:02:55.740Z,9.74
2023-11-16T17:05:24.018Z,9.69
2023-11-16T17:07:52.622Z,9.71
2023-11-16T17:10:28.240Z,9.54
2023-11-16T17:12:56.974Z,9.50
2023-11-16T17:15:25.635Z,9.52
2023-11-16T17:17:54.493Z,9.73
2023-11-16T17:20:23.568Z,9.92
2023-11-16T17:22:52.454Z,10.30
2023-11-16T17:25:21.165Z,10.15
2023-11-16T17:27:52.559Z,10.35
2023-11-16T17:30:20.945Z,10.34
2023-11-16T17:32:50.130Z,10.23
2023-11-16T17:35:18.420Z,10.27
2023-11-16T17:37:47.071Z,10.26
2023-11-16T17:40:18.321Z,10.30
2023-11-16T17:42:49.241Z,10.24
2023-11-16T17:45:23.504Z,9.90
2023-11-16T17:47:54.474Z,10.14
2023-11-16T17:50:23.315Z,10.40
2023-11-16T17:52:53.773Z,10.75
2023-11-16T17:55:21.985Z,10.71
2023-11-16T17:57:52.023Z,10.70
2023-11-16T18:00:24.317Z,10.43
2023-11-16T18:02:55.143Z,10.06
2023-11-16T18:05:23.468Z,10.33
2023-11-16T18:07:52.869Z,10.08
2023-11-16T18:10:34.991Z,9.99
2023-11-16T18:13:08.321Z,10.13
2023-11-16T18:15:39.240Z,9.95
2023-11-16T18:18:09.210Z,10.16
2023-11-16T18:20:38.349Z,9.98
2023-11-16T18:23:09.761Z,10.28
2023-11-16T18:25:41.225Z,10.14
2023-11-16T18:28:14.558Z,10.34
2023-11-16T18:30:45.400Z,10.21
2023-11-16T18:33:14.506Z,10.09
2023-11-16T18:35:43.051Z,10.08
2023-11-16T18:38:12.721Z,9.98
2023-11-16T18:40:41.187Z,9.97
2023-11-16T18:43:11.696Z,9.65
2023-11-16T18:45:40.674Z,9.76
2023-11-16T18:48:11.390Z,9.73
2023-11-16T18:50:41.541Z,9.84
2023-11-16T18:53:10.992Z,9.83
2023-11-16T18:55:40.849Z,9.85
2023-11-16T18:58:10.194Z,9.55
2023-11-16T19:00:40.370Z,9.83
2023-11-16T19:03:20.755Z,9.98
2023-11-16T19:05:49.141Z,9.99
2023-11-16T19:08:20.572Z,9.99
2023-11-16T19:10:48.794Z,10.14
2023-11-16T19:13:19.090Z,10.19
2023-11-16T19:15:47.672Z,10.37
2023-11-16T19:18:16.375Z,10.13
2023-11-16T19:20:46.649Z,10.07
2023-11-16T19:23:15.373Z,10.34
2023-11-16T19:25:48.301Z,10.20
2023-11-16T19:28:17.099Z,10.42
2023-11-16T19:30:48.531Z,10.51
2023-11-16T19:33:20.050Z,10.33
2023-11-16T19:35:49.550Z,10.36
2023-11-16T19:38:18.618Z,10.33
2023-11-16T19:40:46.687Z,10.31
2023-11-16T19:43:15.609Z,10.30
2023-11-16T19:45:43.774Z,10.28
2023-11-16T19:48:13.089Z,10.23
2023-11-16T19:50:41.811Z,10.11
2023-11-16T19:53:14.872Z,9.64
2023-11-16T19:55:43.046Z,9.13
2023-11-16T19:58:13.283Z,9.23
2023-11-16T20:00:43.566Z,8.88
2023-11-16T20:03:20.582Z,8.64
2023-11-16T20:05:49.836Z,8.65
2023-11-16T20:08:19.731Z,8.54
2023-11-16T20:10:48.937Z,8.51
2023-11-16T20:13:17.872Z,8.62
2023-11-16T20:15:46.112Z,8.70
2023-11-16T20:18:14.687Z,8.56
2023-11-16T20:20:51.781Z,8.61
2023-11-16T20:23:26.258Z,8.60
2023-11-16T20:25:54.439Z,8.62
2023-11-16T20:28:25.224Z,8.71
2023-11-16T20:30:53.697Z,8.74
2023-11-16T20:33:23.190Z,8.88
2023-11-16T20:35:51.580Z,9.06
2023-11-16T20:38:20.829Z,9.13
2023-11-16T20:40:52.176Z,8.97
2023-11-16T20:43:22.945Z,8.94
2023-11-16T20:45:52.022Z,8.63
2023-11-16T20:48:21.206Z,8.38
2023-11-16T20:50:50.651Z,8.54
2023-11-16T20:53:20.029Z,8.59
2023-11-16T20:55:48.114Z,8.79
2023-11-16T20:58:18.049Z,8.82
2023-11-16T21:00:46.080Z,8.60
2023-11-16T21:03:22.839Z,8.65
2023-11-16T21:05:51.380Z,8.59
2023-11-16T21:08:20.781Z,8.49
2023-11-16T21:10:48.867Z,8.69
2023-11-16T21:13:18.609Z,8.53
2023-11-16T21:15:46.860Z,8.60
2023-11-16T21:18:16.311Z,8.85
2023-11-16T21:20:45.751Z,8.99
2023-11-16T21:23:14.330Z,8.92
2023-11-16T21:25:42.947Z,8.64
2023-11-16T21:28:11.618Z,8.77
2023-11-16T21:30:41.471Z,8.94
2023-11-16T21:33:11.193Z,8.54
2023-11-16T21:35:40.563Z,8.13
2023-11-16T21:38:09.029Z,7.75
2023-11-16T21:40:37.219Z,8.02
2023-11-16T21:43:07.400Z,7.95
2023-11-16T21:45:35.721Z,8.11
2023-11-16T21:48:08.033Z,7.71
2023-11-16T21:50:38.390Z,8.15
2023-11-16T21:53:10.145Z,8.32
2023-11-16T21:55:38.274Z,8.44
2023-11-16T21:58:06.603Z,8.42
2023-11-16T22:00:34.693Z,8.40
2023-11-16T22:03:03.430Z,8.31
2023-11-16T22:05:33.409Z,8.35
2023-11-16T22:08:02.439Z,8.65
2023-11-16T22:10:30.496Z,8.92
2023-11-16T22:12:59.309Z,9.17
2023-11-16T22:15:27.825Z,9.18
2023-11-16T22:17:56.730Z,9.34
2023-11-16T22:20:24.984Z,9.30
2023-11-16T22:22:54.714Z,9.08
2023-11-16T22:25:33.743Z,9.23
2023-11-16T22:28:02.529Z,8.91
2023-11-16T22:30:32.818Z,8.74
2023-11-16T22:33:02.682Z,8.69
2023-11-16T22:35:30.762Z,7.91
2023-11-16T22:38:01.595Z,7.50
2023-11-16T22:40:30.571Z,7.88
2023-11-16T22:43:02.412Z,8.14
2023-11-16T22:45:30.570Z,8.26
2023-11-16T22:47:59.957Z,8.03
2023-11-16T22:50:29.719Z,7.74
2023-11-16T22:52:59.950Z,7.29
2023-11-16T22:55:31.049Z,7.05
2023-11-16T22:58:00.900Z,6.95
2023-11-16T23:00:42.600Z,7.77
2023-11-16T23:03:22.197Z,7.48
2023-11-16T23:05:53.314Z,7.36
2023-11-16T23:08:22.832Z,7.71
2023-11-16T23:10:54.064Z,7.77
2023-11-16T23:13:22.875Z,7.50
2023-11-16T23:15:52.182Z,7.02
2023-11-16T23:18:20.829Z,6.95
2023-11-16T23:20:49.166Z,7.08
2023-11-16T23:23:17.564Z,7.43
2023-11-16T23:25:45.975Z,6.66
2023-11-16T23:28:18.114Z,7.39
2023-11-16T23:30:47.104Z,7.10
2023-11-16T23:33:15.858Z,7.82
2023-11-16T23:35:45.798Z,6.89
2023-11-16T23:38:14.533Z,7.94
2023-11-16T23:40:42.631Z,7.97
2023-11-16T23:43:11.240Z,7.93
2023-11-16T23:45:41.167Z,7.44
2023-11-16T23:48:10.550Z,7.54
2023-11-16T23:50:38.664Z,8.09
2023-11-16T23:53:07.322Z,8.29
2023-11-16T23:55:35.467Z,8.04
2023-11-16T23:58:05.015Z,7.73
